Time;durP1;ratioP1;P1;durP2;ratioP2;P2;SDS_P1;SDS_P2;PMS_P1;PMS_P2;Temp;Humidity;BMP_temperature;BMP_pressure;BME280_temperature;BME280_humidity;BME280_pressure;Samples;Min_cycle;Max_cycle;Signal;HPM_P1;HPM_P2
2022/02/22 00:00:31;;;;;;;7.65;5.25;;;;;;;;;;357779;147;856044;-60
2022/02/22 00:01:33;;;;;;;10.42;5.07;;;;;;;;;;358125;147;856710;-60
2022/02/22 00:02:35;;;;;;;6.44;5.12;;;;;;;;;;357937;147;856876;-60
2022/02/22 00:15:33;;;;;;;8.16;4.96;;;;;;;5.64;71.95;98510.02;370689;141;876146;-59
2022/02/22 00:16:35;;;;;;;5.58;3.53;;;;;;;;;;363492;145;857435;-60
2022/02/22 00:17:39;;;;;;;6.77;3.32;;;;;;;;;;363732;145;857283;-59
2022/02/22 00:18:40;;;;;;;6.24;3.68;;;;;;;;;;362877;146;864360;-60
2022/02/22 00:19:41;;;;;;;4.92;3.06;;;;;;;;;;363576;144;856033;-60
2022/02/22 00:20:43;;;;;;;6.01;3.95;;;;;;;;;;362080;145;863729;-60
2022/02/22 00:21:44;;;;;;;4.59;3.57;;;;;;;;;;363159;145;856239;-60
2022/02/22 00:22:46;;;;;;;6.31;3.80;;;;;;;;;;365715;144;863676;-60
2022/02/22 00:23:47;;;;;;;4.97;3.58;;;;;;;;;;363326;145;856176;-60
2022/02/22 00:24:49;;;;;;;5.80;3.58;;;;;;;;;;363160;145;857038;-60
2022/02/22 00:25:50;;;;;;;8.74;4.58;;;;;;;;;;363841;144;856204;-62
2022/02/22 00:26:52;;;;;;;15.01;6.67;;;;;;;;;;363625;144;864399;-60
2022/02/22 00:27:53;;;;;;;12.45;6.33;;;;;;;;;;363089;144;856335;-61
2022/02/22 00:28:55;;;;;;;39.49;13.63;;;;;;;;;;362543;144;856089;-61
2022/02/22 00:29:56;;;;;;;33.52;12.09;;;;;;;;;;362645;146;856074;-61
2022/02/22 00:30:58;;;;;;;39.74;14.87;;;;;;;;;;362041;146;864378;-60
2022/02/22 00:32:00;;;;;;;30.74;11.81;;;;;;;;;;363163;144;856103;-59
2022/02/22 00:33:01;;;;;;;29.88;11.69;;;;;;;;;;365710;145;864027;-60
2022/02/22 00:34:03;;;;;;;30.78;11.22;;;;;;;;;;367715;145;863886;-60
2022/02/22 00:35:05;;;;;;;34.45;11.59;;;;;;;;;;365681;144;858977;-60
2022/02/22 00:36:07;;;;;;;19.54;8.56;;;;;;;;;;364975;145;856716;-60
2022/02/22 00:37:09;;;;;;;16.99;7.29;;;;;;;;;;365713;145;856044;-60
2022/02/22 00:38:11;;;;;;;12.33;5.82;;;;;;;;;;365403;144;856924;-60
2022/02/22 00:39:12;;;;;;;9.53;5.37;;;;;;;;;;365343;144;856439;-60
2022/02/22 00:40:14;;;;;;;9.16;5.07;;;;;;;;;;365170;145;856530;-60
2022/02/22 00:41:16;;;;;;;26.81;9.05;;;;;;;;;;366189;144;856358;-60
2022/02/22 00:42:18;;;;;;;10.52;5.36;;;;;;;;;;365460;144;856542;-60
2022/02/22 00:43:20;;;;;;;9.96;5.24;;;;;;;;;;365777;145;856708;-60
2022/02/22 00:44:23;;;;;;;8.28;4.86;;;;;;;;;;367904;145;864376;-61
2022/02/22 00:45:26;;;;;;;7.28;4.60;;;;;;;;;;365185;144;856524;-60
2022/02/22 00:46:27;;;;;;;9.14;5.55;;;;;;;;;;365085;145;856344;-60
2022/02/22 00:47:29;;;;;;;21.09;8.64;;;;;;;;;;365897;145;864011;-60
2022/02/22 00:48:31;;;;;;;14.64;6.48;;;;;;;;;;365624;144;857382;-60
2022/02/22 00:49:32;;;;;;;8.75;5.06;;;;;;;;;;365834;144;856212;-60
2022/02/22 00:50:34;;;;;;;9.66;4.84;;;;;;;;;;366422;145;856505;-59
2022/02/22 00:51:36;;;;;;;7.71;4.57;;;;;;;;;;365767;144;864192;-59
2022/02/22 00:52:37;;;;;;;8.39;5.07;;;;;;;;;;364942;144;861995;-60
2022/02/22 00:53:39;;;;;;;10.04;4.81;;;;;;;;;;365832;145;863737;-60
2022/02/22 00:54:40;;;;;;;6.59;4.75;;;;;;;;;;365325;145;856154;-61
2022/02/22 00:55:42;;;;;;;7.71;4.96;;;;;;;;;;353031;149;857325;-60
2022/02/22 00:56:43;;;;;;;7.04;4.47;;;;;;;;;;352956;150;856846;-59
2022/02/22 00:57:45;;;;;;;8.31;5.18;;;;;;;;;;355994;149;863711;-60
2022/02/22 00:58:46;;;;;;;8.44;5.31;;;;;;;;;;356127;148;856651;-60
2022/02/22 00:59:48;;;;;;;10.09;4.99;;;;;;;;;;351881;150;856375;-60
2022/02/22 01:00:49;;;;;;;7.46;5.07;;;;;;;;;;355718;150;856162;-60
2022/02/22 01:01:51;;;;;;;7.39;4.86;;;;;;;;;;353707;150;856150;-60
2022/02/22 01:02:53;;;;;;;8.89;5.44;;;;;;;;;;354736;150;863776;-60
2022/02/22 01:03:54;;;;;;;9.25;5.06;;;;;;;;;;355914;148;858575;-60
2022/02/22 01:04:56;;;;;;;7.52;4.99;;;;;;;;;;355426;150;863604;-60
2022/02/22 01:05:57;;;;;;;9.32;5.48;;;;;;;;;;353173;150;856536;-59
2022/02/22 01:06:59;;;;;;;7.69;4.55;;;;;;;;;;355394;149;856225;-61
2022/02/22 01:08:02;;;;;;;8.49;5.17;;;;;;;;;;353224;150;863585;-60
2022/02/22 01:09:06;;;;;;;9.59;5.34;;;;;;;;;;356119;149;864168;-60
2022/02/22 01:10:07;;;;;;;9.21;5.09;;;;;;;;;;355171;148;856086;-60
2022/02/22 01:11:09;;;;;;;11.28;5.89;;;;;;;;;;355470;149;856120;-59
2022/02/22 01:12:10;;;;;;;11.14;6.38;;;;;;;;;;358028;147;863733;-59
2022/02/22 01:13:14;;;;;;;13.86;6.14;;;;;;;;;;355503;149;856657;-61
2022/02/22 01:14:15;;;;;;;13.97;6.87;;;;;;;;;;353088;148;863936;-60
2022/02/22 01:15:17;;;;;;;16.39;6.71;;;;;;;;;;356728;149;856872;-61
2022/02/22 01:16:19;;;;;;;12.64;6.79;;;;;;;;;;350856;149;857621;-61
2022/02/22 01:17:20;;;;;;;12.19;6.41;;;;;;;;;;351370;149;857206;-61
2022/02/22 01:18:22;;;;;;;18.15;8.12;;;;;;;;;;351644;151;857411;-61
2022/02/22 01:19:24;;;;;;;14.41;7.19;;;;;;;;;;353222;149;856178;-61
2022/02/22 01:20:26;;;;;;;13.34;6.24;;;;;;;;;;351527;149;864330;-61
2022/02/22 01:21:27;;;;;;;13.39;6.78;;;;;;;;;;351249;151;856596;-60
2022/02/22 01:22:29;;;;;;;11.31;6.10;;;;;;;;;;351724;151;864151;-59
2022/02/22 01:23:30;;;;;;;11.49;5.98;;;;;;;;;;351297;149;863944;-59
2022/02/22 01:24:32;;;;;;;12.22;5.99;;;;;;;;;;352618;149;863892;-59
2022/02/22 01:25:34;;;;;;;14.24;5.85;;;;;;;;;;352187;151;856088;-60
2022/02/22 01:26:35;;;;;;;14.01;6.27;;;;;;;;;;351926;151;864241;-60
2022/02/22 01:27:38;;;;;;;11.81;5.88;;;;;;;;;;351338;149;863663;-60
2022/02/22 01:28:40;;;;;;;13.22;5.97;;;;;;;;;;352186;151;856384;-60
2022/02/22 01:29:42;;;;;;;10.87;5.93;;;;;;;;;;350844;149;856034;-60
2022/02/22 01:30:43;;;;;;;11.49;6.06;;;;;;;;;;351060;149;856165;-60
2022/02/22 01:31:45;;;;;;;13.67;6.49;;;;;;;;;;351778;149;863743;-60
2022/02/22 01:32:46;;;;;;;13.01;5.72;;;;;;;;;;349900;151;856083;-60
2022/02/22 01:33:50;;;;;;;10.40;5.51;;;;;;;;;;351237;151;864439;-60
2022/02/22 01:34:51;;;;;;;11.72;5.63;;;;;;;;;;351445;149;856588;-61
2022/02/22 01:35:53;;;;;;;12.94;5.35;;;;;;;;;;353234;151;856134;-61
2022/02/22 01:36:54;;;;;;;10.68;4.85;;;;;;;;;;352059;151;863072;-61
2022/02/22 01:37:56;;;;;;;10.79;5.14;;;;;;;;;;351799;149;856519;-61
2022/02/22 01:38:58;;;;;;;8.46;5.16;;;;;;;;;;351336;151;856589;-60
2022/02/22 01:39:59;;;;;;;8.48;4.62;;;;;;;;;;350714;151;863852;-60
2022/02/22 01:41:01;;;;;;;12.67;5.25;;;;;;;;;;350760;151;863899;-60
2022/02/22 01:42:03;;;;;;;11.19;5.69;;;;;;;;;;352517;149;863870;-60
2022/02/22 01:43:04;;;;;;;10.01;5.05;;;;;;;;;;352524;151;864057;-61
2022/02/22 01:44:06;;;;;;;9.96;5.39;;;;;;;;;;351028;152;856081;-60
2022/02/22 01:45:08;;;;;;;9.52;5.86;;;;;;;;;;352038;149;863841;-59
2022/02/22 01:46:10;;;;;;;9.04;4.95;;;;;;;;;;351733;151;863776;-60
2022/02/22 01:47:12;;;;;;;7.14;4.99;;;;;;;;;;352539;151;856537;-61
2022/02/22 01:48:14;;;;;;;7.24;4.45;;;;;;;;;;350532;149;863583;-60
2022/02/22 01:49:15;;;;;;;8.49;4.59;;;;;;;;;;352898;151;856750;-60
2022/02/22 01:50:17;;;;;;;6.12;4.45;;;;;;;;;;351401;151;856608;-60
2022/02/22 01:51:19;;;;;;;9.41;5.14;;;;;;;;;;351384;151;863857;-60
2022/02/22 01:52:20;;;;;;;9.41;5.13;;;;;;;;;;351895;149;856757;-61
2022/02/22 01:53:22;;;;;;;7.74;4.97;;;;;;;;;;351221;151;856380;-61
2022/02/22 01:54:25;;;;;;;9.37;5.43;;;;;;;;;;350431;151;856212;-60
2022/02/22 01:55:27;;;;;;;10.03;5.78;;;;;;;;;;350497;149;856320;-61
2022/02/22 01:56:29;;;;;;;8.44;4.89;;;;;;;;;;351132;151;857010;-61
2022/02/22 01:57:31;;;;;;;7.41;4.38;;;;;;;;;;351984;151;863885;-61
2022/02/22 01:58:33;;;;;;;7.71;5.01;;;;;;;;;;351044;151;856622;-61
2022/02/22 01:59:34;;;;;;;9.14;4.93;;;;;;;;;;352394;151;856329;-60
2022/02/22 02:00:36;;;;;;;8.65;4.61;;;;;;;;;;351775;151;863836;-60
2022/02/22 02:01:38;;;;;;;8.52;4.46;;;;;;;;;;350489;151;857068;-60
2022/02/22 02:02:39;;;;;;;8.69;4.59;;;;;;;;;;350289;151;863625;-60
2022/02/22 02:03:41;;;;;;;9.80;5.13;;;;;;;;;;352289;151;856466;-60
2022/02/22 02:04:43;;;;;;;8.91;4.77;;;;;;;;;;353325;149;856059;-60
2022/02/22 02:05:44;;;;;;;9.27;5.39;;;;;;;;;;352073;149;856550;-60
2022/02/22 02:06:46;;;;;;;9.01;4.55;;;;;;;;;;351851;151;864510;-60
2022/02/22 02:07:47;;;;;;;7.79;5.29;;;;;;;;;;351061;151;863735;-60
2022/02/22 02:08:49;;;;;;;10.29;5.56;;;;;;;;;;351259;151;863622;-60
2022/02/22 02:09:51;;;;;;;7.20;4.83;;;;;;;;;;351575;149;864460;-60
2022/02/22 02:10:52;;;;;;;11.34;5.50;;;;;;;;;;352173;151;856167;-60
2022/02/22 02:11:54;;;;;;;10.55;5.19;;;;;;;;;;352553;151;863932;-60
2022/02/22 02:14:55;;;;;;;8.35;4.52;;;;;;;5.21;73.88;98511.29;370664;142;878830;-61
2022/02/22 02:15:57;;;;;;;7.90;4.03;;;;;;;5.08;73.96;98513.10;362996;146;856781;-60
2022/02/22 02:16:58;;;;;;;8.18;3.65;;;;;;;5.09;74.02;98514.80;363892;146;856467;-59
2022/02/22 02:18:00;;;;;;;7.01;3.23;;;;;;;5.08;73.96;98513.10;361503;144;863628;-59
2022/02/22 02:19:03;;;;;;;7.16;3.28;;;;;;;5.09;73.90;98522.50;361744;147;856073;-60
2022/02/22 02:20:05;;;;;;;5.85;3.29;;;;;;;;;;362255;146;863684;-60
2022/02/22 02:21:06;;;;;;;6.63;3.41;;;;;;;;;;363302;147;856115;-60
2022/02/22 02:22:08;;;;;;;5.53;3.37;;;;;;;;;;364560;147;856084;-60
2022/02/22 02:23:10;;;;;;;5.85;3.45;;;;;;;;;;357798;148;858784;-60
2022/02/22 02:24:12;;;;;;;7.55;4.16;;;;;;;;;;357151;147;856254;-59
2022/02/22 02:25:14;;;;;;;9.07;4.90;;;;;;;;;;361549;146;856490;-59
2022/02/22 02:26:15;;;;;;;13.49;6.54;;;;;;;;;;363731;146;856623;-59
2022/02/22 02:27:18;;;;;;;16.64;7.96;;;;;;;;;;363685;146;863949;-58
2022/02/22 02:28:19;;;;;;;25.94;11.93;;;;;;;;;;362949;147;857049;-60
2022/02/22 02:29:22;;;;;;;26.59;11.98;;;;;;;;;;363990;147;856320;-60
2022/02/22 02:30:25;;;;;;;35.64;14.53;;;;;;;;;;362820;146;856787;-59
2022/02/22 02:31:27;;;;;;;27.06;12.51;;;;;;;;;;360744;147;864226;-59
2022/02/22 02:32:29;;;;;;;13.79;7.70;;;;;;;;;;363711;147;864113;-60
2022/02/22 02:33:30;;;;;;;13.52;6.59;;;;;;;;;;358097;147;864077;-59
2022/02/22 02:34:32;;;;;;;10.78;7.06;;;;;;;;;;359298;147;863816;-59
2022/02/22 02:35:33;;;;;;;8.05;5.31;;;;;;;;;;359108;146;863798;-59
2022/02/22 02:36:35;;;;;;;9.87;5.52;;;;;;;;;;359902;147;863627;-59
2022/02/22 02:37:37;;;;;;;8.79;5.56;;;;;;;;;;360009;147;857156;-59
2022/02/22 02:38:40;;;;;;;9.69;6.37;;;;;;;;;;357156;148;856666;-60
2022/02/22 02:39:42;;;;;;;7.69;5.71;;;;;;;;;;360200;147;856057;-59
2022/02/22 02:40:44;;;;;;;9.16;5.94;;;;;;;;;;358321;147;856108;-60
2022/02/22 02:41:46;;;;;;;7.69;5.89;;;;;;;;;;359942;148;863874;-60
2022/02/22 02:42:47;;;;;;;10.49;5.89;;;;;;;;;;359821;148;863572;-60
2022/02/22 02:43:49;;;;;;;10.51;5.79;;;;;;;;;;360325;147;856142;-60
2022/02/22 02:44:50;;;;;;;14.39;7.11;;;;;;;;;;360641;147;864355;-60
2022/02/22 02:45:52;;;;;;;11.91;5.93;;;;;;;;;;360339;148;857073;-60
2022/02/22 02:46:54;;;;;;;8.28;5.80;;;;;;;;;;358975;147;856654;-61
2022/02/22 02:47:55;;;;;;;12.72;5.84;;;;;;;;;;357851;147;863817;-60
2022/02/22 02:48:57;;;;;;;10.89;5.86;;;;;;;;;;358775;148;856803;-59
2022/02/22 02:49:58;;;;;;;10.03;6.01;;;;;;;;;;359176;148;857030;-59
2022/02/22 02:51:00;;;;;;;9.35;5.86;;;;;;;;;;357717;147;863885;-60
2022/02/22 02:52:02;;;;;;;9.78;5.75;;;;;;;;;;359781;147;863905;-60
2022/02/22 02:53:04;;;;;;;9.60;5.97;;;;;;;;;;359678;148;863776;-59
2022/02/22 02:54:06;;;;;;;10.51;6.79;;;;;;;;;;359872;147;863971;-60
2022/02/22 02:55:08;;;;;;;9.72;6.57;;;;;;;;;;359683;147;864263;-60
2022/02/22 02:56:11;;;;;;;9.98;6.25;;;;;;;;;;359185;148;864328;-59
2022/02/22 02:57:14;;;;;;;10.30;6.51;;;;;;;;;;359354;147;856453;-60
2022/02/22 02:58:15;;;;;;;9.54;6.36;;;;;;;;;;359509;148;863724;-59
2022/02/22 02:59:17;;;;;;;11.98;6.41;;;;;;;;;;358835;147;856946;-60
2022/02/22 03:00:19;;;;;;;9.90;5.86;;;;;;;;;;360226;148;857716;-60
2022/02/22 03:01:20;;;;;;;11.50;6.73;;;;;;;;;;360224;147;864075;-59
2022/02/22 03:02:22;;;;;;;10.21;6.60;;;;;;;;;;360011;147;864396;-60
2022/02/22 03:03:24;;;;;;;11.25;6.02;;;;;;;;;;360229;148;863948;-62
2022/02/22 03:04:25;;;;;;;11.24;6.59;;;;;;;;;;359480;147;864234;-60
2022/02/22 03:05:27;;;;;;;11.54;6.56;;;;;;;;;;359822;147;863944;-60
2022/02/22 03:06:28;;;;;;;12.71;7.05;;;;;;;;;;358501;148;864464;-60
2022/02/22 03:07:30;;;;;;;13.17;6.96;;;;;;;;;;359705;148;863955;-60
2022/02/22 03:08:31;;;;;;;9.84;6.44;;;;;;;;;;359538;148;856135;-60
2022/02/22 03:09:33;;;;;;;12.04;7.42;;;;;;;;;;357843;147;856809;-60
2022/02/22 03:10:34;;;;;;;10.74;6.90;;;;;;;;;;351044;151;858671;-60
2022/02/22 03:11:36;;;;;;;11.51;6.84;;;;;;;;;;356501;147;863999;-60
2022/02/22 03:12:37;;;;;;;12.06;7.27;;;;;;;;;;359285;147;862247;-59
2022/02/22 03:13:39;;;;;;;12.22;6.89;;;;;;;;;;358575;148;856099;-59
2022/02/22 03:14:41;;;;;;;10.72;6.01;;;;;;;;;;359299;146;863848;-60
2022/02/22 03:15:43;;;;;;;10.95;6.93;;;;;;;;;;354863;148;864051;-60
2022/02/22 03:16:44;;;;;;;12.81;6.13;;;;;;;;;;354027;148;856835;-60
2022/02/22 03:17:46;;;;;;;9.59;5.68;;;;;;;;;;359956;148;856391;-59
2022/02/22 03:18:47;;;;;;;8.92;5.94;;;;;;;;;;357849;147;863802;-59
2022/02/22 03:19:49;;;;;;;9.96;6.06;;;;;;;;;;361342;147;863864;-60
2022/02/22 03:20:50;;;;;;;9.98;5.98;;;;;;;;;;358735;148;856176;-60
2022/02/22 03:21:52;;;;;;;8.58;5.81;;;;;;;;;;359317;147;864281;-60
2022/02/22 03:22:54;;;;;;;8.15;5.84;;;;;;;;;;361565;147;863218;-62
2022/02/22 03:23:55;;;;;;;9.75;6.11;;;;;;;;;;359376;148;856123;-60
2022/02/22 03:24:57;;;;;;;9.11;5.71;;;;;;;;;;360277;145;856804;-60
2022/02/22 03:25:59;;;;;;;10.26;6.45;;;;;;;;;;359859;145;856325;-61
2022/02/22 03:27:00;;;;;;;8.58;6.43;;;;;;;;;;359971;146;864636;-61
2022/02/22 03:28:05;;;;;;;8.74;5.87;;;;;;;;;;358497;148;856358;-60
2022/02/22 03:29:05;;;;;;;9.27;5.89;;;;;;;;;;358487;147;863876;-60
2022/02/22 03:30:08;;;;;;;9.73;6.19;;;;;;;;;;359463;147;863887;-60
2022/02/22 03:31:09;;;;;;;9.98;6.23;;;;;;;;;;357836;148;856627;-60
2022/02/22 03:32:11;;;;;;;10.62;6.59;;;;;;;;;;359323;147;856102;-60
2022/02/22 03:33:13;;;;;;;12.39;6.39;;;;;;;;;;358972;147;864582;-60
2022/02/22 03:34:14;;;;;;;10.35;6.53;;;;;;;;;;360526;147;864038;-59
2022/02/22 03:35:16;;;;;;;11.09;6.90;;;;;;;;;;358253;146;864247;-59
2022/02/22 03:36:17;;;;;;;11.06;6.93;;;;;;;;;;360329;147;856474;-60
2022/02/22 03:37:19;;;;;;;12.91;6.36;;;;;;;;;;358685;147;864592;-60
2022/02/22 03:38:21;;;;;;;12.99;6.83;;;;;;;;;;360439;148;856817;-60
2022/02/22 03:39:22;;;;;;;10.66;6.99;;;;;;;;;;361110;147;864014;-60
2022/02/22 03:40:24;;;;;;;14.56;7.67;;;;;;;;;;359119;147;856990;-59
2022/02/22 03:41:27;;;;;;;11.05;6.90;;;;;;;;;;358907;146;864696;-60
2022/02/22 03:42:29;;;;;;;10.98;7.04;;;;;;;;;;359388;147;856709;-59
2022/02/22 03:43:30;;;;;;;13.29;7.08;;;;;;;;;;360090;148;856637;-60
2022/02/22 03:44:32;;;;;;;14.60;7.50;;;;;;;;;;359028;147;858989;-60
2022/02/22 03:45:33;;;;;;;11.03;6.83;;;;;;;;;;358761;148;863907;-60
2022/02/22 03:46:35;;;;;;;13.34;6.54;;;;;;;;;;359618;147;857189;-60
2022/02/22 03:47:37;;;;;;;12.25;6.59;;;;;;;;;;359808;147;863892;-60
2022/02/22 03:48:38;;;;;;;11.91;6.97;;;;;;;;;;360211;148;856225;-60
2022/02/22 03:49:40;;;;;;;10.71;6.67;;;;;;;;;;359840;148;863863;-61
2022/02/22 03:50:41;;;;;;;11.21;6.45;;;;;;;;;;360617;147;857429;-61
2022/02/22 03:51:43;;;;;;;10.44;6.31;;;;;;;;;;361416;148;864403;-60
2022/02/22 03:52:44;;;;;;;11.15;6.59;;;;;;;;;;360062;148;856039;-60
2022/02/22 03:55:32;;;;;;;11.19;6.02;;;;;;;5.04;74.27;98626.88;370134;142;882880;-60
2022/02/22 03:56:33;;;;;;;9.82;5.39;;;;;;;;;;362725;147;857246;-60
2022/02/22 03:57:35;;;;;;;9.14;5.44;;;;;;;;;;362777;146;857190;-60
2022/02/22 03:58:36;;;;;;;8.46;5.09;;;;;;;;;;362218;146;858786;-60
2022/02/22 03:59:38;;;;;;;8.56;5.46;;;;;;;;;;362153;147;865544;-60
2022/02/22 04:00:40;;;;;;;10.39;5.81;;;;;;;;;;361883;147;856141;-61
2022/02/22 04:01:41;;;;;;;8.46;5.80;;;;;;;;;;364255;146;862625;-60
2022/02/22 04:02:44;;;;;;;10.03;5.96;;;;;;;;;;360164;147;864269;-60
2022/02/22 04:03:45;;;;;;;10.19;6.13;;;;;;;;;;361616;147;863794;-60
2022/02/22 04:04:47;;;;;;;9.94;6.44;;;;;;;;;;357823;149;856302;-59
2022/02/22 04:05:48;;;;;;;12.26;6.68;;;;;;;;;;356911;149;856747;-61
2022/02/22 04:06:50;;;;;;;13.26;7.00;;;;;;;;;;362157;147;858802;-59
2022/02/22 04:07:51;;;;;;;11.49;6.98;;;;;;;;;;361968;147;863884;-61
2022/02/22 04:08:53;;;;;;;12.10;7.04;;;;;;;;;;361743;146;856245;-60
2022/02/22 04:09:54;;;;;;;11.74;7.70;;;;;;;;;;361936;147;863792;-60
2022/02/22 04:10:56;;;;;;;13.86;7.56;;;;;;;;;;362711;146;856776;-60
2022/02/22 04:11:57;;;;;;;12.97;6.92;;;;;;;;;;362156;146;864455;-60
2022/02/22 04:12:59;;;;;;;11.99;7.13;;;;;;;;;;360279;147;863890;-61
2022/02/22 04:14:01;;;;;;;12.16;7.33;;;;;;;;;;349171;150;863769;-61
2022/02/22 04:15:03;;;;;;;12.34;7.29;;;;;;;;;;351030;150;857034;-61
2022/02/22 04:16:05;;;;;;;11.25;7.21;;;;;;;;;;359746;147;857237;-61
2022/02/22 04:17:06;;;;;;;12.27;7.26;;;;;;;;;;358678;147;863952;-61
2022/02/22 04:18:08;;;;;;;12.19;7.22;;;;;;;;;;358493;147;860715;-60
2022/02/22 04:19:10;;;;;;;10.97;7.29;;;;;;;;;;356976;147;864023;-60
2022/02/22 04:20:12;;;;;;;13.44;7.77;;;;;;;;;;358663;147;856206;-60
2022/02/22 04:21:14;;;;;;;13.94;7.39;;;;;;;;;;357175;147;856634;-60
2022/02/22 04:22:16;;;;;;;15.54;8.69;;;;;;;;;;357819;147;856381;-60
2022/02/22 04:23:17;;;;;;;16.03;8.21;;;;;;;;;;359040;147;856761;-60
2022/02/22 04:24:19;;;;;;;11.99;7.98;;;;;;;;;;357990;147;856357;-60
2022/02/22 04:25:20;;;;;;;15.16;8.38;;;;;;;;;;357952;147;858862;-60
2022/02/22 04:26:23;;;;;;;14.63;8.11;;;;;;;;;;358186;147;857097;-60
2022/02/22 04:27:24;;;;;;;13.40;8.34;;;;;;;;;;359135;147;856463;-60
2022/02/22 04:28:26;;;;;;;15.01;8.24;;;;;;;;;;360631;147;858099;-60
2022/02/22 04:29:27;;;;;;;16.54;8.44;;;;;;;;;;358415;147;864214;-59
2022/02/22 04:30:29;;;;;;;11.36;7.70;;;;;;;;;;357511;148;856502;-60
2022/02/22 04:31:33;;;;;;;12.31;7.31;;;;;;;;;;358210;147;863897;-59
2022/02/22 04:32:35;;;;;;;13.74;7.43;;;;;;;;;;350512;150;857227;-60
2022/02/22 04:33:36;;;;;;;14.31;8.01;;;;;;;;;;358002;147;856591;-60
2022/02/22 04:34:38;;;;;;;12.57;7.55;;;;;;;;;;358328;147;856098;-59
2022/02/22 04:35:39;;;;;;;13.05;7.72;;;;;;;;;;357638;147;856805;-60
2022/02/22 04:36:41;;;;;;;12.78;7.17;;;;;;;;;;356904;147;857758;-60
2022/02/22 04:37:43;;;;;;;12.37;6.71;;;;;;;;;;358786;147;856841;-60
2022/02/22 04:38:44;;;;;;;12.18;7.23;;;;;;;;;;350432;150;863884;-59
2022/02/22 04:39:46;;;;;;;12.69;7.01;;;;;;;;;;358172;147;856464;-60
2022/02/22 04:40:48;;;;;;;11.18;7.25;;;;;;;;;;357031;147;856133;-60
2022/02/22 04:41:53;;;;;;;10.25;6.82;;;;;;;;;;358648;147;856877;-61
2022/02/22 04:42:54;;;;;;;11.21;7.14;;;;;;;;;;357787;147;856389;-61
2022/02/22 04:43:56;;;;;;;13.04;7.35;;;;;;;;;;357474;147;863935;-61
2022/02/22 04:44:57;;;;;;;12.50;7.75;;;;;;;;;;358254;147;863918;-60
2022/02/22 04:45:59;;;;;;;11.19;6.81;;;;;;;;;;357867;148;856395;-62
2022/02/22 04:47:00;;;;;;;10.70;6.69;;;;;;;;;;359249;147;863829;-60
2022/02/22 04:48:02;;;;;;;13.56;7.39;;;;;;;;;;357674;147;863736;-60
2022/02/22 04:49:08;;;;;;;12.19;6.77;;;;;;;;;;356305;147;863845;-60
2022/02/22 04:50:08;;;;;;;11.33;6.71;;;;;;;;;;356966;147;864533;-60
2022/02/22 04:51:10;;;;;;;12.96;7.01;;;;;;;;;;357727;147;856944;-59
2022/02/22 04:52:11;;;;;;;11.77;6.98;;;;;;;;;;355285;148;856018;-61
2022/02/22 04:53:13;;;;;;;11.88;7.05;;;;;;;;;;357842;147;864798;-60
2022/02/22 04:54:14;;;;;;;13.15;7.41;;;;;;;;;;358277;147;863962;-59
2022/02/22 04:55:16;;;;;;;13.40;7.87;;;;;;;;;;358243;147;856948;-59
2022/02/22 04:56:20;;;;;;;11.84;7.31;;;;;;;;;;358085;147;864024;-62
2022/02/22 04:57:21;;;;;;;13.06;7.71;;;;;;;;;;354688;148;856306;-61
2022/02/22 04:58:23;;;;;;;14.08;6.91;;;;;;;;;;354949;148;856349;-61
2022/02/22 04:59:24;;;;;;;13.51;7.52;;;;;;;;;;358956;148;856178;-60
2022/02/22 05:00:26;;;;;;;13.10;7.30;;;;;;;;;;359410;147;864895;-59
2022/02/22 05:01:28;;;;;;;14.11;8.39;;;;;;;;;;358541;147;864752;-59
2022/02/22 05:02:29;;;;;;;13.89;7.59;;;;;;;;;;357899;147;864082;-59
2022/02/22 05:03:31;;;;;;;16.30;8.22;;;;;;;;;;359428;148;864180;-61
2022/02/22 05:04:32;;;;;;;13.84;7.79;;;;;;;;;;360717;147;856430;-61
2022/02/22 05:05:34;;;;;;;13.30;7.41;;;;;;;;;;360829;147;858731;-60
2022/02/22 05:06:35;;;;;;;14.99;7.83;;;;;;;;;;358064;147;863875;-60
2022/02/22 05:07:37;;;;;;;13.82;7.82;;;;;;;;;;357670;147;864095;-60
2022/02/22 05:08:38;;;;;;;14.14;8.13;;;;;;;;;;358285;147;863828;-61
2022/02/22 05:09:40;;;;;;;16.19;8.09;;;;;;;;;;359385;147;863787;-59
2022/02/22 05:10:42;;;;;;;14.16;7.71;;;;;;;;;;358873;147;856834;-60
2022/02/22 05:11:43;;;;;;;16.59;8.34;;;;;;;;;;357310;147;863833;-60
2022/02/22 05:12:45;;;;;;;15.24;8.01;;;;;;;;;;357481;147;863777;-60
2022/02/22 05:13:46;;;;;;;15.07;8.56;;;;;;;;;;357112;148;856278;-60
2022/02/22 05:14:48;;;;;;;13.01;7.34;;;;;;;;;;358301;147;856690;-60
2022/02/22 05:15:49;;;;;;;14.34;7.45;;;;;;;;;;356765;147;856261;-60
2022/02/22 05:16:51;;;;;;;13.70;7.41;;;;;;;;;;359117;148;856973;-61
2022/02/22 05:17:53;;;;;;;11.51;7.54;;;;;;;;;;358011;147;864036;-61
2022/02/22 05:18:54;;;;;;;14.34;8.11;;;;;;;;;;359415;147;864299;-61
2022/02/22 05:19:56;;;;;;;12.55;7.76;;;;;;;;;;356151;147;856506;-60
2022/02/22 05:20:57;;;;;;;10.89;7.28;;;;;;;;;;357150;147;864185;-60
2022/02/22 05:21:59;;;;;;;13.95;7.98;;;;;;;;;;358397;147;863953;-61
2022/02/22 05:23:00;;;;;;;14.84;8.25;;;;;;;;;;357739;147;864511;-60
2022/02/22 05:24:02;;;;;;;15.18;7.76;;;;;;;;;;358382;147;861370;-59
2022/02/22 05:25:04;;;;;;;14.35;8.04;;;;;;;;;;359740;147;863886;-60
2022/02/22 05:26:06;;;;;;;11.85;7.39;;;;;;;;;;359576;147;856024;-60
2022/02/22 05:27:08;;;;;;;13.34;7.43;;;;;;;;;;357241;147;856353;-60
2022/02/22 05:28:09;;;;;;;13.37;7.83;;;;;;;;;;357242;147;863886;-60
2022/02/22 05:29:11;;;;;;;11.34;7.72;;;;;;;;;;356944;147;858250;-60
2022/02/22 05:30:14;;;;;;;12.75;7.46;;;;;;;;;;358274;147;864197;-60
2022/02/22 05:31:16;;;;;;;13.35;7.93;;;;;;;;;;358007;147;856426;-60
2022/02/22 05:32:18;;;;;;;12.93;7.43;;;;;;;;;;358739;147;856067;-61
2022/02/22 05:33:20;;;;;;;11.29;7.86;;;;;;;;;;356675;147;856655;-60
2022/02/22 05:34:22;;;;;;;12.86;8.03;;;;;;;;;;357638;147;858469;-60
2022/02/22 05:35:23;;;;;;;11.82;7.31;;;;;;;;;;355873;147;857015;-60
2022/02/22 05:36:25;;;;;;;10.91;6.79;;;;;;;;;;357790;147;864064;-61
2022/02/22 05:37:27;;;;;;;10.99;6.56;;;;;;;;;;356690;147;856867;-59
2022/02/22 05:38:29;;;;;;;13.79;7.79;;;;;;;;;;356820;147;856377;-61
2022/02/22 05:39:30;;;;;;;14.00;8.72;;;;;;;;;;351266;150;856277;-60
2022/02/22 05:40:32;;;;;;;15.15;8.76;;;;;;;;;;358209;147;863805;-61
2022/02/22 05:41:34;;;;;;;14.68;8.61;;;;;;;;;;357710;147;856705;-59
2022/02/22 05:42:36;;;;;;;14.85;8.43;;;;;;;;;;357346;147;863930;-61
2022/02/22 05:43:37;;;;;;;13.82;8.09;;;;;;;;;;357752;147;863968;-60
2022/02/22 05:44:39;;;;;;;13.99;8.39;;;;;;;;;;357409;147;857173;-60
2022/02/22 05:45:40;;;;;;;14.18;8.49;;;;;;;;;;357954;147;863862;-60
2022/02/22 05:46:42;;;;;;;17.18;9.16;;;;;;;;;;358122;147;857193;-61
2022/02/22 05:47:43;;;;;;;17.54;9.13;;;;;;;;;;356947;147;857036;-60
2022/02/22 05:48:45;;;;;;;17.93;7.74;;;;;;;;;;358439;149;856648;-60
2022/02/22 05:49:47;;;;;;;13.36;7.54;;;;;;;;;;357309;147;856287;-60
2022/02/22 05:54:57;;;;;;;14.92;7.99;;;;;;;4.67;72.66;98730.49;372484;142;868476;-58
2022/02/22 05:55:59;;;;;;;10.90;6.49;;;;;;;4.61;72.59;98740.77;367256;144;857837;-59
2022/02/22 05:57:01;;;;;;;10.29;6.13;;;;;;;4.63;72.52;98733.09;366483;144;856064;-59
2022/02/22 05:58:03;;;;;;;9.85;5.37;;;;;;;4.65;72.22;98739.91;366507;144;856732;-58
2022/02/22 05:59:05;;;;;;;9.49;5.61;;;;;;;4.71;72.08;98739.05;366114;144;856151;-56
2022/02/22 06:00:09;;;;;;;10.54;5.81;;;;;;;4.78;71.84;98734.76;367513;144;856121;-57
2022/02/22 06:01:10;;;;;;;10.21;5.96;;;;;;;4.87;71.61;98744.98;366309;144;863761;-58
2022/02/22 06:02:12;;;;;;;9.56;4.83;;;;;;;4.96;71.21;98744.94;366394;144;856702;-59
2022/02/22 06:03:14;;;;;;;8.90;5.63;;;;;;;5.05;70.73;98744.02;366572;144;856261;-58
2022/02/22 06:04:16;;;;;;;10.16;5.33;;;;;;;;;;366794;144;864286;-58
2022/02/22 06:05:17;;;;;;;12.21;6.15;;;;;;;;;;366036;144;863938;-57
2022/02/22 06:06:19;;;;;;;10.91;6.23;;;;;;;;;;367673;144;856905;-56
2022/02/22 06:07:21;;;;;;;12.33;6.23;;;;;;;;;;361799;147;857182;-58
2022/02/22 06:08:22;;;;;;;10.57;6.53;;;;;;;;;;360510;144;857257;-57
2022/02/22 06:09:24;;;;;;;14.18;6.95;;;;;;;;;;366723;144;857459;-58
2022/02/22 06:10:28;;;;;;;11.74;6.38;;;;;;;;;;366862;144;856387;-59
2022/02/22 06:11:29;;;;;;;14.86;7.38;;;;;;;;;;367358;144;864485;-59
2022/02/22 06:12:31;;;;;;;21.55;7.30;;;;;;;;;;365432;144;864441;-59
2022/02/22 06:13:32;;;;;;;12.99;7.18;;;;;;;;;;363172;144;857338;-58
2022/02/22 06:14:34;;;;;;;12.53;7.35;;;;;;;;;;361352;146;863947;-57
2022/02/22 06:15:35;;;;;;;13.12;7.65;;;;;;;;;;360793;145;856100;-57
2022/02/22 06:16:37;;;;;;;12.76;7.96;;;;;;;;;;362371;145;856277;-57